createdAt,value
2023-02-07T00:00:56.907Z,70.26
2023-02-07T00:03:24.283Z,70.78
2023-02-07T00:05:51.697Z,71.00
2023-02-07T00:08:19.107Z,71.31
2023-02-07T00:10:46.515Z,70.83
2023-02-07T00:13:13.904Z,71.10
2023-02-07T00:15:41.205Z,71.48
2023-02-07T00:18:08.641Z,70.99
2023-02-07T00:20:35.999Z,71.31
2023-02-07T00:23:03.565Z,72.29
2023-02-07T00:25:30.848Z,72.56
2023-02-07T00:27:58.307Z,72.18
2023-02-07T00:30:26.243Z,72.17
2023-02-07T00:32:53.770Z,72.53
2023-02-07T00:35:21.030Z,72.47
2023-02-07T00:37:48.367Z,72.87
2023-02-07T00:40:18.248Z,72.82
2023-02-07T00:42:45.604Z,72.69
2023-02-07T00:45:12.865Z,72.39
2023-02-07T00:47:40.394Z,72.58
2023-02-07T00:50:08.099Z,72.90
2023-02-07T00:52:35.483Z,72.58
2023-02-07T00:55:02.822Z,72.47
2023-02-07T00:57:30.168Z,72.54
2023-02-07T00:59:57.486Z,72.51
2023-02-07T01:02:24.877Z,72.92
2023-02-07T01:04:52.215Z,72.93
2023-02-07T01:07:19.591Z,72.99
2023-02-07T01:09:47.039Z,72.75
2023-02-07T01:12:14.442Z,72.58
2023-02-07T01:14:41.718Z,72.42
2023-02-07T01:17:09.031Z,72.56
2023-02-07T01:19:36.291Z,72.57
2023-02-07T01:22:04.609Z,72.84
2023-02-07T01:24:32.785Z,73.14
2023-02-07T01:27:00.257Z,72.74
2023-02-07T01:29:27.640Z,72.53
2023-02-07T01:31:55.194Z,73.03
2023-02-07T01:34:22.547Z,73.03
2023-02-07T01:36:49.847Z,72.94
2023-02-07T01:39:17.149Z,73.06
2023-02-07T01:41:44.505Z,73.03
2023-02-07T01:44:24.002Z,73.44
2023-02-07T01:46:51.954Z,73.12
2023-02-07T01:49:24.626Z,73.21
2023-02-07T01:51:56.658Z,73.40
2023-02-07T01:54:24.027Z,73.48
2023-02-07T01:56:55.835Z,74.11
2023-02-07T01:59:23.471Z,73.43
2023-02-07T02:01:50.803Z,73.50
2023-02-07T02:04:18.440Z,73.09
2023-02-07T02:06:45.672Z,72.90
2023-02-07T02:09:15.246Z,73.16
2023-02-07T02:11:57.506Z,73.13
2023-02-07T02:15:12.657Z,73.32
2023-02-07T02:18:01.748Z,73.45
2023-02-07T02:21:02.123Z,73.46
2023-02-07T02:23:41.528Z,73.24
2023-02-07T02:26:38.182Z,73.60
2023-02-07T02:29:27.398Z,74.12
2023-02-07T02:32:09.917Z,73.87
2023-02-07T02:34:43.333Z,73.47
2023-02-07T02:37:15.404Z,73.35
2023-02-07T02:39:57.446Z,73.28
2023-02-07T02:42:38.719Z,73.88
2023-02-07T02:45:13.089Z,73.62
2023-02-07T02:47:40.922Z,73.49
2023-02-07T02:50:12.577Z,73.39
2023-02-07T02:52:50.179Z,73.62
2023-02-07T02:55:51.417Z,73.10
2023-02-07T02:58:30.987Z,72.99
2023-02-07T03:01:09.725Z,73.34
2023-02-07T03:03:56.225Z,73.06
2023-02-07T03:06:33.410Z,73.19
2023-02-07T03:09:24.830Z,73.40
2023-02-07T03:11:58.444Z,73.15
2023-02-07T03:14:35.554Z,72.86
2023-02-07T03:17:28.801Z,72.69
2023-02-07T03:20:12.871Z,73.31
2023-02-07T03:22:40.204Z,73.56
2023-02-07T03:25:07.641Z,73.55
2023-02-07T03:27:35.875Z,73.21
2023-02-07T03:30:06.068Z,73.82
2023-02-07T03:32:38.857Z,73.59
2023-02-07T03:35:06.355Z,73.29
2023-02-07T03:37:41.900Z,73.73
2023-02-07T03:40:09.962Z,74.11
2023-02-07T03:42:51.348Z,73.58
2023-02-07T03:45:20.136Z,73.22
2023-02-07T03:47:47.614Z,73.50
2023-02-07T03:50:16.276Z,73.46
2023-02-07T03:52:43.535Z,74.00
2023-02-07T03:55:11.012Z,73.83
2023-02-07T03:57:38.374Z,73.40
2023-02-07T04:00:06.455Z,73.35
2023-02-07T04:02:40.097Z,73.68
2023-02-07T04:05:07.671Z,73.26
2023-02-07T04:07:35.050Z,73.67
2023-02-07T04:10:03.525Z,73.68
2023-02-07T04:12:33.029Z,73.28
2023-02-07T04:15:01.157Z,73.20
2023-02-07T04:17:31.173Z,73.34
2023-02-07T04:19:59.034Z,73.06
2023-02-07T04:22:26.323Z,73.10
2023-02-07T04:24:53.714Z,72.72
2023-02-07T04:27:21.019Z,72.51
2023-02-07T04:29:48.704Z,72.57
2023-02-07T04:32:15.996Z,72.94
2023-02-07T04:34:43.324Z,72.88
2023-02-07T04:37:10.623Z,72.80
2023-02-07T04:39:37.982Z,72.59
2023-02-07T04:42:05.468Z,72.32
2023-02-07T04:44:32.831Z,72.31
2023-02-07T04:47:00.157Z,72.07
2023-02-07T04:49:27.542Z,72.87
2023-02-07T04:51:54.790Z,72.73
2023-02-07T04:54:22.250Z,72.78
2023-02-07T04:56:49.565Z,72.95
2023-02-07T04:59:16.964Z,72.85
2023-02-07T05:01:44.302Z,72.80
2023-02-07T05:04:11.738Z,72.21
2023-02-07T05:06:39.102Z,72.03
2023-02-07T05:09:06.545Z,72.04
2023-02-07T05:11:33.878Z,72.35
2023-02-07T05:14:01.198Z,72.62
2023-02-07T05:16:28.525Z,72.75
2023-02-07T05:18:55.998Z,72.82
2023-02-07T05:21:23.289Z,72.29
2023-02-07T05:23:50.821Z,72.38
2023-02-07T05:26:18.115Z,72.70
2023-02-07T05:28:45.549Z,72.50
2023-02-07T05:31:13.022Z,72.39
2023-02-07T05:33:40.475Z,72.43
2023-02-07T05:36:08.318Z,72.08
2023-02-07T05:38:35.743Z,72.49
2023-02-07T05:41:03.110Z,72.68
2023-02-07T05:43:30.487Z,73.71
2023-02-07T05:45:57.950Z,74.32
2023-02-07T05:48:25.316Z,74.96
2023-02-07T05:50:52.615Z,74.96
2023-02-07T05:53:20.156Z,75.00
2023-02-07T05:55:47.540Z,74.77
2023-02-07T05:58:15.235Z,74.49
2023-02-07T06:00:42.664Z,74.33
2023-02-07T06:03:10.272Z,73.93
2023-02-07T06:05:37.806Z,73.53
2023-02-07T06:08:05.489Z,72.99
2023-02-07T06:10:33.283Z,73.32
2023-02-07T06:13:00.848Z,72.67
2023-02-07T06:15:28.448Z,72.92
2023-02-07T06:17:56.085Z,73.01
2023-02-07T06:20:23.487Z,72.90
2023-02-07T06:22:50.867Z,72.42
2023-02-07T06:25:21.013Z,72.29
2023-02-07T06:27:48.730Z,73.17
2023-02-07T06:30:16.106Z,73.52
2023-02-07T06:32:44.961Z,72.90
2023-02-07T06:35:12.309Z,71.29
2023-02-07T06:37:39.653Z,70.70
2023-02-07T06:40:07.344Z,70.23
2023-02-07T06:42:34.842Z,69.00
2023-02-07T06:45:02.226Z,68.43
2023-02-07T06:47:30.037Z,68.36
2023-02-07T06:49:57.305Z,67.54
2023-02-07T06:52:24.907Z,66.50
2023-02-07T06:54:52.197Z,65.72
2023-02-07T06:57:19.771Z,65.62
2023-02-07T06:59:47.264Z,66.40
2023-02-07T07:02:16.065Z,65.78
2023-02-07T07:04:43.732Z,64.82
2023-02-07T07:07:11.319Z,63.58
2023-02-07T07:09:39.231Z,62.94
2023-02-07T07:12:07.892Z,61.90
2023-02-07T07:14:36.630Z,61.42
2023-02-07T07:17:04.492Z,60.69
2023-02-07T07:19:32.375Z,62.35
2023-02-07T07:21:59.826Z,62.53
2023-02-07T07:24:27.637Z,62.76
2023-02-07T07:26:59.594Z,63.29
2023-02-07T07:29:27.140Z,61.23
2023-02-07T07:31:54.544Z,60.60
2023-02-07T07:34:22.126Z,59.41
2023-02-07T07:36:49.568Z,57.90
2023-02-07T07:39:17.371Z,57.02
2023-02-07T07:41:44.825Z,55.21
2023-02-07T07:44:21.813Z,54.76
2023-02-07T07:46:49.394Z,53.35
2023-02-07T07:49:16.768Z,53.93
2023-02-07T07:51:44.258Z,52.87
2023-02-07T07:54:11.660Z,52.75
2023-02-07T07:56:39.227Z,53.43
2023-02-07T07:59:12.192Z,53.94
2023-02-07T08:01:47.760Z,53.42
2023-02-07T08:04:15.339Z,52.70
2023-02-07T08:06:46.046Z,53.46
2023-02-07T08:09:14.435Z,53.71
2023-02-07T08:11:42.007Z,53.17
2023-02-07T08:14:09.409Z,52.63
2023-02-07T08:16:37.031Z,50.72
2023-02-07T08:19:04.809Z,50.85
2023-02-07T08:21:32.762Z,51.28
2023-02-07T08:24:00.132Z,55.58
2023-02-07T08:26:27.750Z,58.99
2023-02-07T08:28:55.751Z,61.67
2023-02-07T08:31:23.794Z,63.33
2023-02-07T08:33:52.148Z,63.18
2023-02-07T08:36:19.622Z,63.36
2023-02-07T08:38:47.269Z,63.00
2023-02-07T08:41:14.677Z,63.04
2023-02-07T08:43:42.349Z,63.18
2023-02-07T08:46:09.967Z,62.55
2023-02-07T08:48:37.356Z,62.15
2023-02-07T08:51:08.129Z,61.32
2023-02-07T08:53:35.649Z,61.00
2023-02-07T08:56:03.014Z,61.15
2023-02-07T08:58:30.713Z,61.42
2023-02-07T09:01:01.337Z,62.51
2023-02-07T09:03:29.591Z,61.89
2023-02-07T09:06:00.263Z,60.85
2023-02-07T09:08:27.984Z,61.33
2023-02-07T09:10:55.566Z,61.22
2023-02-07T09:13:23.335Z,60.89
2023-02-07T09:15:57.786Z,60.23
2023-02-07T09:18:25.712Z,59.60
2023-02-07T09:20:53.497Z,58.59
2023-02-07T09:23:21.090Z,59.18
2023-02-07T09:25:50.675Z,59.93
2023-02-07T09:28:20.014Z,59.57
2023-02-07T09:30:48.412Z,60.27
2023-02-07T09:33:16.561Z,60.45
2023-02-07T09:35:46.554Z,60.71
2023-02-07T09:38:25.987Z,60.38
2023-02-07T09:40:54.013Z,59.57
2023-02-07T09:43:36.363Z,58.79
2023-02-07T09:46:13.948Z,58.12
2023-02-07T09:48:51.319Z,57.29
2023-02-07T09:51:20.492Z,57.01
2023-02-07T09:53:59.532Z,57.99
2023-02-07T09:56:34.432Z,58.02
2023-02-07T09:59:42.296Z,57.23
2023-02-07T10:02:35.752Z,58.00
2023-02-07T10:05:25.030Z,57.00
2023-02-07T10:07:52.524Z,57.94
2023-02-07T10:10:39.702Z,57.10
2023-02-07T10:13:28.400Z,56.61
2023-02-07T10:16:07.733Z,56.52
2023-02-07T10:18:35.252Z,56.70
2023-02-07T10:21:25.143Z,56.19
2023-02-07T10:23:58.710Z,55.88
2023-02-07T10:26:33.106Z,57.35
2023-02-07T10:29:14.124Z,58.17
2023-02-07T10:31:47.376Z,57.13
2023-02-07T10:34:18.342Z,57.18
2023-02-07T10:36:47.812Z,57.15
2023-02-07T10:39:34.012Z,56.31
2023-02-07T10:42:01.711Z,55.90
2023-02-07T10:44:29.732Z,55.84
2023-02-07T10:47:02.643Z,56.05
2023-02-07T10:49:34.720Z,54.29
2023-02-07T10:52:07.036Z,52.58
2023-02-07T10:54:53.211Z,52.78
2023-02-07T10:57:21.281Z,52.27
2023-02-07T10:59:51.702Z,53.83
2023-02-07T11:02:31.261Z,52.06
2023-02-07T11:05:00.677Z,53.07
2023-02-07T11:07:32.505Z,52.04
2023-02-07T11:10:21.646Z,51.49
2023-02-07T11:12:52.074Z,51.56
2023-02-07T11:15:21.652Z,50.52
2023-02-07T11:17:56.650Z,50.44
2023-02-07T11:20:53.605Z,49.90
2023-02-07T11:23:21.387Z,49.04
2023-02-07T11:25:48.933Z,47.85
2023-02-07T11:28:21.250Z,47.70
2023-02-07T11:30:53.421Z,47.19
2023-02-07T11:33:21.038Z,47.75
2023-02-07T11:36:23.637Z,48.84
2023-02-07T11:38:55.846Z,48.02
2023-02-07T11:41:25.902Z,47.65
2023-02-07T11:44:00.779Z,47.94
2023-02-07T11:46:36.974Z,47.86
2023-02-07T11:49:06.840Z,47.61
2023-02-07T11:51:35.468Z,46.42
2023-02-07T11:54:06.025Z,48.77
2023-02-07T11:56:43.989Z,47.82
2023-02-07T11:59:16.912Z,47.48
2023-02-07T12:01:47.226Z,48.30
2023-02-07T12:04:22.103Z,47.79
2023-02-07T12:07:00.107Z,48.17
2023-02-07T12:09:48.593Z,47.65
2023-02-07T12:12:22.267Z,47.99
2023-02-07T12:14:56.402Z,48.26
2023-02-07T12:17:46.924Z,47.72
2023-02-07T12:20:26.902Z,48.05
2023-02-07T12:23:41.362Z,47.42
2023-02-07T12:26:26.509Z,46.58
2023-02-07T12:29:12.058Z,46.97
2023-02-07T12:31:58.612Z,47.29
2023-02-07T12:34:44.335Z,47.60
2023-02-07T12:37:30.845Z,47.34
2023-02-07T12:40:21.742Z,46.98
2023-02-07T12:42:52.752Z,47.99
2023-02-07T12:45:34.273Z,48.88
2023-02-07T12:48:21.842Z,49.91
2023-02-07T12:51:16.882Z,49.34
2023-02-07T12:54:09.707Z,47.79
2023-02-07T12:56:56.388Z,46.59
2023-02-07T12:59:41.879Z,46.85
2023-02-07T13:02:34.416Z,47.35
2023-02-07T13:05:07.648Z,47.85
2023-02-07T13:08:05.162Z,47.90
2023-02-07T13:10:51.711Z,47.83
2023-02-07T13:13:24.103Z,47.78
2023-02-07T13:15:57.623Z,47.11
2023-02-07T13:18:30.867Z,47.44
2023-02-07T13:21:10.967Z,47.54
2023-02-07T13:23:38.702Z,48.11
2023-02-07T13:26:09.507Z,48.15
2023-02-07T13:29:02.908Z,48.15
2023-02-07T13:31:50.727Z,48.12
2023-02-07T13:34:45.663Z,48.34
2023-02-07T13:37:17.046Z,48.46
2023-02-07T13:39:57.552Z,48.99
2023-02-07T13:42:41.719Z,49.45
2023-02-07T13:45:16.244Z,49.68
2023-02-07T13:48:03.909Z,49.91
2023-02-07T13:50:55.093Z,49.32
2023-02-07T13:53:29.028Z,49.42
2023-02-07T13:56:04.013Z,49.29
2023-02-07T13:59:23.769Z,49.61
2023-02-07T14:01:57.845Z,48.77
2023-02-07T14:04:25.542Z,49.45
2023-02-07T14:07:05.613Z,49.57
2023-02-07T14:09:39.921Z,49.31
2023-02-07T14:12:21.605Z,48.60
2023-02-07T14:15:01.739Z,48.12
2023-02-07T14:17:30.328Z,47.87
2023-02-07T14:19:58.644Z,46.47
2023-02-07T14:22:41.374Z,47.88
2023-02-07T14:25:08.831Z,47.18
2023-02-07T14:27:43.783Z,46.27
2023-02-07T14:30:43.770Z,46.44
2023-02-07T14:33:17.446Z,46.47
2023-02-07T14:36:05.467Z,47.07
2023-02-07T14:39:05.359Z,48.13
2023-02-07T14:41:37.614Z,48.75
2023-02-07T14:44:09.794Z,48.93
2023-02-07T14:46:48.233Z,49.60
2023-02-07T14:49:44.247Z,50.14
2023-02-07T14:52:13.138Z,51.13
2023-02-07T14:54:40.718Z,51.13
2023-02-07T14:57:26.663Z,51.10
2023-02-07T15:00:12.768Z,51.28
2023-02-07T15:02:54.920Z,51.43
2023-02-07T15:05:33.716Z,51.59
2023-02-07T15:08:04.131Z,52.47
2023-02-07T15:10:45.777Z,52.31
2023-02-07T15:13:41.738Z,52.99
2023-02-07T15:16:19.833Z,53.04
2023-02-07T15:19:00.842Z,52.90
2023-02-07T15:21:41.860Z,53.27
2023-02-07T15:24:16.606Z,53.63
2023-02-07T15:26:44.018Z,53.98
2023-02-07T15:29:21.772Z,53.94
2023-02-07T15:31:49.379Z,54.08
2023-02-07T15:34:22.526Z,54.09
2023-02-07T15:36:51.042Z,54.21
2023-02-07T15:39:23.659Z,54.71
2023-02-07T15:41:52.797Z,54.59
2023-02-07T15:44:21.256Z,55.06
2023-02-07T15:46:55.884Z,54.73
2023-02-07T15:49:41.420Z,55.60
2023-02-07T15:52:11.547Z,55.58
2023-02-07T15:54:41.104Z,56.09
2023-02-07T15:57:18.075Z,56.49
2023-02-07T15:59:45.659Z,56.47
2023-02-07T16:02:31.702Z,56.87
2023-02-07T16:04:59.423Z,57.19
2023-02-07T16:07:26.700Z,57.55
2023-02-07T16:09:54.409Z,58.01
2023-02-07T16:12:53.168Z,58.28
2023-02-07T16:15:34.864Z,58.27
2023-02-07T16:18:03.957Z,57.97
2023-02-07T16:20:35.512Z,58.50
2023-02-07T16:23:04.066Z,58.86
2023-02-07T16:25:33.325Z,59.05
2023-02-07T16:28:00.814Z,59.41
2023-02-07T16:30:31.541Z,59.50
2023-02-07T16:32:59.107Z,60.11
2023-02-07T16:35:27.249Z,60.28
2023-02-07T16:37:54.962Z,60.48
2023-02-07T16:40:26.720Z,61.16
2023-02-07T16:42:54.331Z,61.36
2023-02-07T16:45:27.736Z,61.48
2023-02-07T16:47:55.854Z,62.19
2023-02-07T16:50:24.828Z,62.56
2023-02-07T16:52:52.894Z,62.19
2023-02-07T16:55:20.712Z,62.41
2023-02-07T16:57:48.378Z,62.22
2023-02-07T17:00:23.370Z,62.93
2023-02-07T17:02:51.242Z,63.38
2023-02-07T17:05:18.792Z,63.64
2023-02-07T17:07:46.493Z,63.57
2023-02-07T17:10:25.569Z,63.65
2023-02-07T17:12:54.329Z,63.12
2023-02-07T17:15:22.040Z,63.72
2023-02-07T17:17:49.897Z,63.92
2023-02-07T17:20:28.714Z,63.76
2023-02-07T17:22:56.577Z,64.12
2023-02-07T17:25:25.304Z,64.30
2023-02-07T17:27:52.659Z,64.63
2023-02-07T17:30:21.959Z,64.45
2023-02-07T17:32:49.406Z,64.45
2023-02-07T17:35:16.794Z,64.56
2023-02-07T17:37:44.307Z,64.25
2023-02-07T17:40:23.660Z,64.12
2023-02-07T17:42:51.206Z,64.14
2023-02-07T17:45:18.603Z,63.98
2023-02-07T17:47:46.151Z,64.34
2023-02-07T17:50:21.485Z,64.63
2023-02-07T17:52:48.858Z,64.48
2023-02-07T17:55:16.321Z,64.55
2023-02-07T17:57:43.917Z,64.57
2023-02-07T18:00:18.939Z,64.67
2023-02-07T18:02:47.493Z,65.14
2023-02-07T18:05:15.480Z,65.31
2023-02-07T18:07:43.453Z,65.22
2023-02-07T18:10:11.294Z,65.47
2023-02-07T18:12:38.750Z,65.59
2023-02-07T18:15:08.757Z,65.28
2023-02-07T18:17:36.993Z,65.66
2023-02-07T18:20:05.046Z,65.66
2023-02-07T18:22:32.451Z,65.64
2023-02-07T18:24:59.761Z,65.72
2023-02-07T18:27:27.098Z,65.74
2023-02-07T18:29:54.376Z,65.88
2023-02-07T18:32:21.851Z,66.29
2023-02-07T18:34:49.347Z,66.58
2023-02-07T18:37:16.714Z,66.57
2023-02-07T18:39:44.012Z,67.14
2023-02-07T18:42:13.870Z,67.21
2023-02-07T18:44:41.183Z,67.23
2023-02-07T18:47:08.471Z,67.49
2023-02-07T18:49:35.844Z,67.74
2023-02-07T18:52:03.312Z,67.56
2023-02-07T18:54:30.622Z,67.33
2023-02-07T18:56:58.601Z,68.01
2023-02-07T18:59:25.855Z,67.77
2023-02-07T19:01:53.754Z,68.13
2023-02-07T19:04:21.239Z,67.98
2023-02-07T19:06:52.285Z,68.02
2023-02-07T19:09:21.105Z,68.50
2023-02-07T19:11:50.318Z,68.66
2023-02-07T19:14:20.011Z,68.53
2023-02-07T19:16:49.487Z,68.80
2023-02-07T19:19:17.017Z,68.81
2023-02-07T19:21:44.397Z,68.51
2023-02-07T19:24:15.881Z,68.80
2023-02-07T19:26:43.316Z,68.69
2023-02-07T19:29:12.929Z,69.04
2023-02-07T19:31:43.500Z,68.74
2023-02-07T19:34:11.828Z,69.06
2023-02-07T19:36:39.581Z,69.26
2023-02-07T19:39:07.193Z,69.64
2023-02-07T19:41:34.673Z,69.83
2023-02-07T19:44:02.108Z,69.64
2023-02-07T19:46:29.575Z,69.26
2023-02-07T19:48:57.236Z,69.15
2023-02-07T19:51:26.892Z,69.79
2023-02-07T19:53:54.442Z,69.96
2023-02-07T19:56:24.291Z,69.98
2023-02-07T19:58:53.382Z,69.63
2023-02-07T20:01:21.103Z,69.86
2023-02-07T20:03:52.315Z,69.95
2023-02-07T20:06:21.039Z,69.51
2023-02-07T20:08:48.456Z,69.76
2023-02-07T20:11:17.806Z,69.95
2023-02-07T20:13:47.301Z,69.79
2023-02-07T20:16:16.496Z,69.98
2023-02-07T20:18:44.026Z,69.66
2023-02-07T20:21:18.880Z,70.08
2023-02-07T20:23:47.055Z,69.47
2023-02-07T20:26:19.747Z,69.77
2023-02-07T20:28:48.831Z,70.13
2023-02-07T20:31:17.653Z,70.12
2023-02-07T20:33:45.160Z,70.07
2023-02-07T20:36:13.881Z,70.45
2023-02-07T20:38:41.321Z,70.46
2023-02-07T20:41:36.115Z,70.89
2023-02-07T20:44:05.656Z,70.08
2023-02-07T20:46:34.587Z,70.68
2023-02-07T20:49:04.358Z,70.59
2023-02-07T20:51:31.779Z,70.99
2023-02-07T20:54:00.713Z,71.32
2023-02-07T20:56:28.274Z,71.00
2023-02-07T20:58:55.800Z,70.97
2023-02-07T21:01:24.911Z,71.37
2023-02-07T21:03:53.320Z,71.10
2023-02-07T21:06:22.928Z,71.04
2023-02-07T21:09:00.287Z,71.15
2023-02-07T21:11:36.262Z,71.01
2023-02-07T21:14:04.360Z,71.56
2023-02-07T21:16:31.843Z,71.73
2023-02-07T21:18:59.418Z,71.75
2023-02-07T21:21:27.132Z,71.69
2023-02-07T21:23:54.530Z,71.61
2023-02-07T21:26:22.007Z,71.61
2023-02-07T21:28:49.386Z,71.84
2023-02-07T21:31:20.930Z,72.02
2023-02-07T21:33:49.771Z,72.02
2023-02-07T21:36:19.412Z,71.81
2023-02-07T21:38:48.075Z,72.05
2023-02-07T21:41:16.281Z,72.28
2023-02-07T21:43:43.717Z,71.87
2023-02-07T21:46:13.317Z,72.02
2023-02-07T21:48:41.830Z,72.17
2023-02-07T21:51:10.787Z,72.06
2023-02-07T21:53:38.335Z,71.76
2023-02-07T21:56:08.079Z,72.43
2023-02-07T21:58:35.475Z,72.25
2023-02-07T22:01:29.190Z,72.64
2023-02-07T22:03:59.043Z,72.49
2023-02-07T22:06:26.582Z,72.45
2023-02-07T22:08:57.066Z,72.23
2023-02-07T22:11:25.556Z,72.26
2023-02-07T22:13:53.390Z,71.95
2023-02-07T22:16:22.282Z,72.21
2023-02-07T22:18:51.470Z,72.73
2023-02-07T22:21:41.769Z,72.53
2023-02-07T22:24:10.798Z,72.65
2023-02-07T22:26:38.118Z,71.90
2023-02-07T22:29:06.481Z,72.24
2023-02-07T22:31:36.204Z,72.18
2023-02-07T22:34:08.422Z,71.69
2023-02-07T22:36:37.719Z,71.63
2023-02-07T22:39:05.811Z,71.72
2023-02-07T22:41:33.315Z,72.14
2023-02-07T22:44:01.494Z,72.16
2023-02-07T22:46:29.044Z,72.14
2023-02-07T22:48:56.469Z,72.02
2023-02-07T22:51:29.748Z,71.96
2023-02-07T22:53:59.318Z,72.10
2023-02-07T22:56:26.857Z,72.77
2023-02-07T22:58:54.560Z,72.59
2023-02-07T23:01:28.640Z,72.27
2023-02-07T23:03:56.305Z,72.46
2023-02-07T23:06:24.233Z,72.27
2023-02-07T23:08:51.686Z,72.10
2023-02-07T23:11:19.570Z,72.31
2023-02-07T23:13:47.154Z,72.09
2023-02-07T23:16:15.700Z,72.24
2023-02-07T23:18:43.207Z,73.02
2023-02-07T23:21:11.143Z,72.40
2023-02-07T23:23:38.770Z,72.17
2023-02-07T23:26:07.919Z,71.76
2023-02-07T23:28:37.252Z,71.93
2023-02-07T23:31:08.653Z,72.01
2023-02-07T23:33:36.141Z,72.15
2023-02-07T23:36:04.010Z,72.47
2023-02-07T23:38:31.368Z,72.56
2023-02-07T23:40:58.629Z,72.61
2023-02-07T23:43:26.133Z,72.43
2023-02-07T23:45:53.441Z,72.60
2023-02-07T23:48:20.734Z,72.73
2023-02-07T23:50:56.682Z,72.82
2023-02-07T23:53:24.180Z,72.86
2023-02-07T23:55:53.382Z,72.55
2023-02-07T23:58:20.936Z,72.47
